メインページ
METAR-TAF:

METAR-TAF

空港 :

シェレメーチエヴォ国際空港

モスクワ-シェレメーチエヴォ, ロシア

緯度: 55-58N, 経度: 037-25E, 海抜: 190m

現時点の気象観測

当レポートは36分前の06:00(UTC)に作成
南東の風 10kt、から南/南東の間で変化する
気温 -1°C
湿度 100%
気圧 1010 hPa
視程: 9000m
高度500ftの曇り
小雪

METAR: UUEE 150600Z 14005MPS 100V160 9000 -SN OVC005 M01/M01 Q1010 R06R/520251 R06C/520251 R06L/510251 TEMPO -FZDZ

時間: 09:36 (06:36 UTC)

予報

当レポートは1時間40分前の04:56(UTC)に作成
予報は15日の 06時(UTC)から 16日の 06時(UTC)まで有効
南/南東の風 10kt、最大23ktの突風を伴う
視程: 6000m
高度700ftの曇り
15日の 06時(UTC)から 15日の 08時(UTC)まで一時的に
視程: 2100m
高度400ftの曇り
(弱い) 着氷性, 雨, 小雪, 靄
15日の 08時(UTC)から 15日の 16時(UTC)まで一時的に
視程: 3100m
高度400ftの曇り
小雨, 雪, 靄
15日の 16時(UTC)から 15日の 22時(UTC)まで一時的に
視程: 1000m
高度400ftの千切れ雲あり
高度1100ftの千切れ雲あり, 積乱雲.
にわか雪
15日の 19時(UTC)から 15日の 21時(UTC)まで徐々に
南西の風 14kt

TAF: UUEE 150456Z 1506/1606 15005G12MPS 6000 OVC007 TX02/1515Z TNM00/1506Z TEMPO 1506/1508 2100 -FZRA -SN BR OVC004 TEMPO 1508/1516 3100 -RASN BR OVC004 TEMPO 1516/1522 1000 SHSN BKN004 BKN011CB BECMG 1519/1521 22007MPS

4,000以上の空港の気象観測と天気予報(METAR報とTAF報)

利用可能な観測所は地図上に黄色い丸と赤い丸で示す。

丸の上にカーソルを重ねると観測所名を参照できる。

次にクリックすると気象観測と天気予報を参照できる。

マップの切り替え:黒色「×」印の緑ボタンをクリックして拡大、「-」印の緑ボタンをクリックして縮小、緑色の三角印をクリックして隣りの地図に切り替え


METAR-TAF: